Map

Track Data

SID SEASON NUMBER BASIN SUBBASIN NAME ISO_TIME NATURE LAT LON WMO_WIND WMO_PRES WMO_AGENCY TRACK_TYPE DIST2LAND LANDFALL IFLAG USA_AGENCY USA_ATCF_ID USA_LAT USA_LON USA_RECORD USA_STATUS USA_WIND USA_PRES USA_SSHS USA_R34_NE USA_R34_SE USA_R34_SW USA_R34_NW USA_R50_NE USA_R50_SE USA_R50_SW USA_R50_NW USA_R64_NE USA_R64_SE USA_R64_SW USA_R64_NW USA_POCI USA_ROCI USA_RMW USA_EYE TOKYO_LAT TOKYO_LON TOKYO_GRADE TOKYO_WIND TOKYO_PRES TOKYO_R50_DIR TOKYO_R50_LONG TOKYO_R50_SHORT TOKYO_R30_DIR TOKYO_R30_LONG TOKYO_R30_SHORT TOKYO_LAND CMA_LAT CMA_LON CMA_CAT CMA_WIND CMA_PRES HKO_LAT HKO_LON HKO_CAT HKO_WIND HKO_PRES NEWDELHI_LAT NEWDELHI_LON NEWDELHI_GRADE NEWDELHI_WIND NEWDELHI_PRES NEWDELHI_CI NEWDELHI_DP NEWDELHI_POCI REUNION_LAT REUNION_LON REUNION_TYPE REUNION_WIND REUNION_PRES REUNION_TNUM REUNION_CI REUNION_RMW REUNION_R34_NE REUNION_R34_SE REUNION_R34_SW REUNION_R34_NW REUNION_R50_NE REUNION_R50_SE REUNION_R50_SW REUNION_R50_NW REUNION_R64_NE REUNION_R64_SE REUNION_R64_SW REUNION_R64_NW BOM_LAT BOM_LON BOM_TYPE BOM_WIND BOM_PRES BOM_TNUM BOM_CI BOM_RMW BOM_R34_NE BOM_R34_SE BOM_R34_SW BOM_R34_NW BOM_R50_NE BOM_R50_SE BOM_R50_SW BOM_R50_NW BOM_R64_NE BOM_R64_SE BOM_R64_SW BOM_R64_NW BOM_ROCI BOM_POCI BOM_EYE BOM_POS_METHOD BOM_PRES_METHOD NADI_LAT NADI_LON NADI_CAT NADI_WIND NADI_PRES WELLINGTON_LAT WELLINGTON_LON WELLINGTON_WIND WELLINGTON_PRES DS824_LAT DS824_LON DS824_STAGE DS824_WIND DS824_PRES TD9636_LAT TD9636_LON TD9636_STAGE TD9636_WIND TD9636_PRES TD9635_LAT TD9635_LON TD9635_WIND TD9635_PRES TD9635_ROCI NEUMANN_LAT NEUMANN_LON NEUMANN_CLASS NEUMANN_WIND NEUMANN_PRES MLC_LAT MLC_LON MLC_CLASS MLC_WIND MLC_PRES USA_GUST BOM_GUST BOM_GUST_PER REUNION_GUST REUNION_GUST_PER USA_SEAHGT USA_SEARAD_NE USA_SEARAD_SE USA_SEARAD_SW USA_SEARAD_NW STORM_SPEED STORM_DIR
1955044S17108 1955 11 SI WA NOT_NAMED 1955-02-12 23:00:00 NR -17.0000 108.100 main 826 803 __________O___ -1 -17.0000 108.100 7 13 118
1955044S17108 1955 11 SI WA NOT_NAMED 1955-02-13 00:00:00 TS -17.1023 108.301 main 803 787 O________OP___ jtwc_sh SH141955 -17.1000 108.300 -1 -17.1000 108.300 TC -17.1047 108.302 7 15 89
1955044S17108 1955 11 SI WA NOT_NAMED 1955-02-13 01:00:00 TS -16.9880 108.627 992 bom main 787 750 P_____O__PP___ SH141955 -17.1938 108.502 -1 -15.5000 109.500 992 -17.1938 108.502 TC -17.2097 108.503 7 14 94
1955044S17108 1955 11 SI WA NOT_NAMED 1955-02-13 03:00:00 TS -17.1490 109.033 main 750 673 P_____P__PP___ SH141955 -17.3854 108.905 -1 -15.8922 109.679 -17.3854 108.905 TC -17.4230 108.903 7 12 118
1955044S17108 1955 11 SI WA NOT_NAMED 1955-02-13 06:00:00 TS -17.4719 109.587 main 673 613 O_____P__OP___ jtwc_sh SH141955 -17.7000 109.500 -1 -16.4806 109.949 -17.7000 109.500 TC -17.7592 109.490 7 12 124
1955044S17108 1955 11 SI WA NOT_NAMED 1955-02-13 09:00:00 TS -17.8343 110.104 main 613 567 P_____P__PP___ SH141955 -18.0699 110.073 -1 -17.0691 110.221 -18.0699 110.073 TC -18.1282 110.049 7 12 130
1955044S17108 1955 11 SI WA NOT_NAMED 1955-02-13 11:00:00 TS -18.1403 110.416 main 567 543 P_____P__PO___ SH141955 -18.3500 110.431 -1 -17.4612 110.403 -18.3500 110.431 TC -18.4000 110.400 7 13 137
1955044S17108 1955 11 SI WA NOT_NAMED 1955-02-13 12:00:00 TS -18.3006 110.565 main 536 466 O_____P__OP___ jtwc_sh SH141955 -18.5000 110.600 -1 -17.6573 110.494 -18.5000 110.600 TC -18.5450 110.568 7 13 141
1955044S17108 1955 11 SI WA NOT_NAMED 1955-02-13 15:00:00 TS -18.8099 110.995 main 466 397 P_____P__PP___ SH141955 -18.9924 111.088 -1 -18.2451 110.769 -18.9924 111.088 TC -19.0096 111.037 7 13 143
1955044S17108 1955 11 SI WA NOT_NAMED 1955-02-13 18:00:00 TS -19.3328 111.374 main 397 335 O_____P__OP___ jtwc_sh SH141955 -19.5000 111.500 -1 -18.8325 111.046 -19.5000 111.500 TC -19.4988 111.451 7 12 147
1955044S17108 1955 11 SI WA NOT_NAMED 1955-02-13 21:00:00 TS -19.8340 111.701 main 335 296 P_____P__PP___ SH141955 -19.9649 111.838 -1 -19.4191 111.325 -19.9649 111.838 TC -19.9872 111.803 7 12 150
1955044S17108 1955 11 SI WA NOT_NAMED 1955-02-13 23:00:00 TS -20.1566 111.888 main 289 281 P_____P__PO___ SH141955 -20.2583 112.019 -1 -19.8098 111.512 -20.2583 112.019 TC -20.3000 112.000 7 10 153
1955044S17108 1955 11 SI WA NOT_NAMED 1955-02-14 00:00:00 TS -20.2919 111.953 main 273 266 O_____P__OP___ jtwc_sh SH141955 -20.4000 112.100 -1 -20.0049 111.606 -20.4000 112.100 TC -20.4358 112.094 7 9 156
1955044S17108 1955 11 SI WA NOT_NAMED 1955-02-14 01:00:00 TS -20.4298 112.015 990 bom main 266 238 P_____O__PP___ SH141955 -20.5364 112.183 -1 -20.2000 111.700 990 4 -20.5364 112.183 TC -20.5677 112.179 7 9 160
1955044S17108 1955 11 SI WA NOT_NAMED 1955-02-14 03:00:00 TS -20.7201 112.116 main 238 206 P_____P__PP___ SH141955 -20.8000 112.330 -1 -20.5749 111.773 -20.8000 112.330 TC -20.8239 112.327 7 9 164
1955044S17108 1955 11 SI WA NOT_NAMED 1955-02-14 06:00:00 TS -21.1735 112.246 main 201 164 O_____P__OP___ jtwc_sh SH141955 -21.2000 112.500 -1 -21.1376 111.883 -21.2000 112.500 TC -21.2049 112.501 7 10 166
1955044S17108 1955 11 SI WA NOT_NAMED 1955-02-14 09:00:00 TS -21.6530 112.364 main 159 140 P_____P__PP___ SH141955 -21.6350 112.615 -1 -21.7004 111.994 -21.6350 112.615 TC -21.6067 112.630 7 10 168
1955044S17108 1955 11 SI WA NOT_NAMED 1955-02-14 11:00:00 TS -21.9845 112.432 main 140 135 P_____P__PO___ SH141955 -21.9417 112.672 -1 -22.0756 112.068 -21.9417 112.672 TC -21.9000 112.700 7 10 173
1955044S17108 1955 11 SI WA NOT_NAMED 1955-02-14 12:00:00 TS -22.1603 112.440 main 131 112 O_____P__OP___ jtwc_sh SH141955 -22.1000 112.700 -1 -22.2632 112.105 -22.1000 112.700 TC -22.0571 112.732 7 11 174
1955044S17108 1955 11 SI WA NOT_NAMED 1955-02-14 15:00:00 TS -22.6998 112.512 main 113 113 P_____P__PP___ SH141955 -22.5925 112.795 -1 -22.8260 112.218 -22.5925 112.795 TC -22.5669 112.817 7 11 175
1955044S17108 1955 11 SI WA NOT_NAMED 1955-02-14 18:00:00 TS -23.2788 112.552 main 113 91 O_____P__OP___ jtwc_sh SH141955 -23.1000 112.900 -1 -23.3886 112.331 -23.1000 112.900 TC -23.1216 112.890 7 12 177
1955044S17108 1955 11 SI WA NOT_NAMED 1955-02-14 21:00:00 TS -23.8919 112.568 main 91 84 ______P___P___ SH141955 -1 -23.9509 112.446 TC -23.7043 112.957 7 12 177
1955044S17108 1955 11 SI WA NOT_NAMED 1955-02-14 23:00:00 TS -24.2837 112.614 main 81 80 ______P___O___ SH141955 -1 -24.3256 112.523 TC -24.1000 113.000 7 12 179
1955044S17108 1955 11 SI WA NOT_NAMED 1955-02-15 00:00:00 TS -24.5085 112.574 main 81 81 ______P_______ -1 -24.5128 112.561 7 13 183
1955044S17108 1955 11 SI WA NOT_NAMED 1955-02-15 01:00:00 NR -24.7000 112.600 996 bom main 87 ______O_______ -1 -24.7000 112.600 996 7 12 0

About IBTrACS Database

This database is a web-friendly format of International Best Track Archive for Climate Stewardship (IBTrACS), a global best track data archive curated by NOAA dating back to 1842.

Updated: 2021-10-27